Terminal Aerodrome Forecast
Issued by NWS

Home | Current Version | Previous Version | Text Only | Print | Product List | Glossary On
Versions: 1 2 3 4 5 6 7 8 9 10 11 12 13 14 15 16
000
FTUS43 KAPX 291725
TAFPLN
TAF
KPLN 291725Z 2918/3018 24011G21KT P6SM OVC040
     FM291820 25013G23KT P6SM SKC
     FM300000 26011G19KT P6SM SKC
     FM300200 26006KT P6SM SCT050
     FM301400 28013G20KT P6SM SCT050=

USA.gov is the U.S. government's official web portal to all federal, state and local government web resources and services.